Time;durP1;ratioP1;P1;durP2;ratioP2;P2;SDS_P1;SDS_P2;PMS_P1;PMS_P2;Temp;Humidity;BMP_temperature;BMP_pressure;BME280_temperature;BME280_humidity;BME280_pressure;Samples;Min_cycle;Max_cycle;Signal;HPM_P1;HPM_P2
2022/05/03 00:00:48;;;;;;;40.08;21.73;;;;;;;14.77;55.81;100150.19;4859773;28;98365;-78
2022/05/03 00:03:41;;;;;;;36.85;23.48;;;;;;;14.64;56.10;100135.00;4844598;28;101414;-78
2022/05/03 00:06:18;;;;;;;36.15;21.83;;;;;;;14.58;56.56;100139.75;4855533;28;96942;-78
2022/05/03 00:08:50;;;;;;;35.60;21.13;;;;;;;14.58;56.24;100137.97;4846140;28;97517;-78
2022/05/03 00:11:37;;;;;;;37.10;20.60;;;;;;;14.61;55.69;100134.31;4839405;28;101619;-78
2022/05/03 00:14:03;;;;;;;31.48;18.13;;;;;;;14.55;55.46;100134.66;4876128;28;101240;-78
2022/05/03 00:16:28;;;;;;;27.85;17.67;;;;;;;14.58;55.27;100129.19;4869672;28;97589;-78
2022/05/03 00:18:54;;;;;;;32.38;18.67;;;;;;;14.52;55.26;100125.09;4867647;28;97628;-78
2022/05/03 00:21:21;;;;;;;33.20;18.15;;;;;;;14.41;55.28;100122.97;4866055;28;98045;-77
2022/05/03 00:23:46;;;;;;;28.50;18.15;;;;;;;14.20;56.20;100129.41;4867246;28;97428;-78
2022/05/03 00:26:12;;;;;;;32.63;17.85;;;;;;;14.02;56.59;100128.53;4870727;28;97635;-77
2022/05/03 00:28:38;;;;;;;27.38;17.33;;;;;;;13.98;56.36;100125.22;4869908;28;96895;-78
2022/05/03 00:31:06;;;;;;;34.78;17.35;;;;;;;14.08;56.09;100125.63;4886868;28;97461;-78
2022/05/03 00:33:35;;;;;;;33.67;19.10;;;;;;;13.97;56.57;100123.53;4853968;28;100484;-78
2022/05/03 00:36:00;;;;;;;27.52;17.83;;;;;;;13.85;56.89;100126.78;4851449;28;97331;-78
2022/05/03 00:38:27;;;;;;;29.15;18.88;;;;;;;13.80;57.11;100128.78;4878802;28;97331;-78
2022/05/03 00:40:57;;;;;;;28.58;17.70;;;;;;;13.74;56.76;100121.19;4853726;28;101257;-78
2022/05/03 00:43:45;;;;;;;28.13;18.00;;;;;;;13.65;57.32;100133.06;4850662;28;102008;-78
2022/05/03 00:46:16;;;;;;;28.77;17.98;;;;;;;13.67;56.94;100136.47;4879058;28;96789;-78
2022/05/03 00:49:02;;;;;;;25.30;17.42;;;;;;;13.64;57.59;100128.69;4857108;28;97172;-78
2022/05/03 00:51:45;;;;;;;32.55;17.65;;;;;;;13.73;57.48;100127.38;4857316;28;101351;-78
2022/05/03 00:54:29;;;;;;;31.35;16.88;;;;;;;13.57;57.35;100127.31;4857637;28;101242;-78
2022/05/03 00:57:04;;;;;;;28.45;17.73;;;;;;;13.57;57.71;100130.78;4889606;28;96792;-78
2022/05/03 00:59:49;;;;;;;21.83;16.52;;;;;;;13.57;57.96;100135.22;4889060;28;97162;-78
2022/05/03 01:02:25;;;;;;;29.15;18.00;;;;;;;13.48;57.92;100123.34;4888619;28;98101;-77
2022/05/03 01:05:03;;;;;;;29.55;16.67;;;;;;;13.50;57.47;100115.38;4872846;28;101483;-78
2022/05/03 01:07:35;;;;;;;29.58;18.17;;;;;;;13.67;57.15;100131.22;4889382;28;97226;-77
2022/05/03 01:10:14;;;;;;;28.85;17.77;;;;;;;13.49;57.97;100130.31;4871206;28;97111;-80
2022/05/03 01:13:07;;;;;;;26.52;16.25;;;;;;;13.52;58.05;100142.50;4887345;28;101815;-78
2022/05/03 01:15:37;;;;;;;26.50;17.13;;;;;;;13.49;57.91;100143.50;4869697;28;101250;-77
2022/05/03 01:18:21;;;;;;;32.10;17.30;;;;;;;13.42;58.19;100138.63;4874161;28;97252;-78
2022/05/03 01:21:05;;;;;;;27.55;17.45;;;;;;;13.47;58.05;100140.09;4886722;28;97397;-77
2022/05/03 01:24:06;;;;;;;30.30;19.40;;;;;;;13.44;58.50;100137.63;4883585;28;98217;-78
2022/05/03 01:26:59;;;;;;;25.50;16.40;;;;;;;13.19;58.74;100122.09;4860845;28;101205;-78
2022/05/03 01:29:32;;;;;;;28.38;18.13;;;;;;;13.14;58.74;100135.47;4873117;28;97433;-77
2022/05/03 01:32:06;;;;;;;26.00;17.52;;;;;;;13.08;58.41;100138.41;4872323;28;97830;-77
2022/05/03 01:34:33;;;;;;;30.45;18.05;;;;;;;13.11;58.55;100140.03;4869263;28;98104;-78
2022/05/03 01:37:36;;;;;;;33.28;18.75;;;;;;;13.10;58.65;100143.59;4844010;28;101144;-78
2022/05/03 01:40:12;;;;;;;34.97;18.48;;;;;;;12.89;58.97;100137.56;4880770;28;96781;-77
2022/05/03 01:42:50;;;;;;;24.08;17.38;;;;;;;13.07;59.11;100149.03;4871443;28;98162;-78
2022/05/03 01:45:25;;;;;;;26.70;17.33;;;;;;;13.07;58.59;100147.22;4899513;28;97758;-77
2022/05/03 01:48:18;;;;;;;26.17;17.92;;;;;;;13.04;58.40;100149.16;4891483;28;97965;-77
2022/05/03 01:51:27;;;;;;;25.48;16.38;;;;;;;13.12;58.63;100147.03;4875912;28;97174;-77
2022/05/03 01:54:11;;;;;;;28.58;17.20;;;;;;;13.07;58.49;100151.66;4876347;28;97465;-78
2022/05/03 01:56:57;;;;;;;30.55;18.80;;;;;;;12.79;58.74;100116.03;4890407;28;101428;-77
2022/05/03 02:00:06;;;;;;;31.50;18.02;;;;;;;12.75;59.18;100139.97;4875739;28;101816;-77
2022/05/03 02:02:58;;;;;;;27.40;17.63;;;;;;;12.80;59.17;100151.13;4867129;28;97944;-77
2022/05/03 02:05:27;;;;;;;24.48;17.02;;;;;;;12.68;58.96;100140.25;4863740;28;97202;-77
2022/05/03 02:07:59;;;;;;;28.85;16.58;;;;;;;12.58;59.50;100132.84;4890261;28;101818;-78
2022/05/03 02:10:33;;;;;;;27.63;17.75;;;;;;;12.63;59.66;100123.81;4875332;28;101558;-78
2022/05/03 02:13:08;;;;;;;27.05;18.20;;;;;;;12.78;59.15;100143.31;4884421;28;97308;-77
2022/05/03 02:15:40;;;;;;;24.30;17.58;;;;;;;12.61;58.95;100119.53;4894437;28;96815;-77
2022/05/03 02:18:35;;;;;;;28.13;17.38;;;;;;;12.46;59.81;100137.72;4859654;28;102176;-77
2022/05/03 02:21:08;;;;;;;26.13;17.65;;;;;;;12.55;59.12;100127.72;4872583;28;102970;-77
2022/05/03 02:23:42;;;;;;;29.33;19.52;;;;;;;12.34;59.63;100105.84;4893924;28;97578;-78
2022/05/03 02:26:28;;;;;;;26.73;18.40;;;;;;;12.44;59.92;100133.44;4894810;28;96745;-77
2022/05/03 02:28:56;;;;;;;26.58;17.33;;;;;;;12.26;59.68;100095.66;4875366;28;100393;-77
2022/05/03 02:31:30;;;;;;;25.20;18.23;;;;;;;12.46;59.64;100132.47;4878662;28;101334;-77
2022/05/03 02:34:04;;;;;;;28.15;19.23;;;;;;;12.21;59.88;100109.00;4876039;28;96853;-77
2022/05/03 02:36:35;;;;;;;24.40;17.77;;;;;;;12.26;59.91;100114.06;4878178;28;97222;-78
2022/05/03 02:39:05;;;;;;;27.83;18.03;;;;;;;12.40;59.75;100129.25;4862662;28;100862;-77
2022/05/03 02:41:38;;;;;;;29.10;18.90;;;;;;;12.45;59.82;100128.13;4878569;28;97393;-78
2022/05/03 02:44:04;;;;;;;33.67;18.30;;;;;;;12.21;59.86;100113.41;4863356;28;97166;-77
2022/05/03 02:46:47;;;;;;;30.63;18.30;;;;;;;12.21;60.52;100137.09;4878493;28;97075;-78
2022/05/03 02:49:19;;;;;;;27.35;17.65;;;;;;;12.16;60.40;100120.69;4862941;28;101769;-77
2022/05/03 02:51:55;;;;;;;26.42;17.55;;;;;;;12.04;60.52;100116.78;4893514;28;97930;-78
2022/05/03 02:54:55;;;;;;;27.67;16.92;;;;;;;12.19;60.27;100137.19;4879584;28;98011;-77
2022/05/03 02:57:58;;;;;;;23.65;16.90;;;;;;;12.13;60.48;100136.56;4894203;28;97296;-77
2022/05/03 03:03:16;;;;;;;28.35;17.35;;;;;;;12.12;60.52;100134.88;4892390;28;101531;-78
2022/05/03 03:05:44;;;;;;;26.50;17.73;;;;;;;12.10;60.65;100131.44;4878192;28;97261;-77
2022/05/03 03:08:14;;;;;;;24.83;16.83;;;;;;;11.99;60.71;100124.88;4859937;28;97481;-77
2022/05/03 03:11:17;;;;;;;27.63;16.92;;;;;;;11.92;61.20;100131.31;4877394;28;97639;-78
2022/05/03 03:14:11;;;;;;;27.08;17.88;;;;;;;11.91;60.96;100141.91;4872295;28;101434;-77
2022/05/03 03:16:51;;;;;;;26.02;17.75;;;;;;;12.03;60.42;100130.00;4876967;28;97221;-77
2022/05/03 03:19:26;;;;;;;26.85;17.88;;;;;;;11.88;60.48;100121.00;4878416;28;96886;-77
2022/05/03 03:21:55;;;;;;;24.17;17.98;;;;;;;11.99;60.16;100150.34;4901367;28;98426;-77
2022/05/03 03:24:21;;;;;;;29.55;18.05;;;;;;;12.02;60.16;100152.00;4865472;28;101313;-77
2022/05/03 03:26:47;;;;;;;28.52;19.00;;;;;;;11.97;60.48;100150.38;4874069;28;97013;-78
2022/05/03 03:29:14;;;;;;;28.42;18.40;;;;;;;12.03;60.42;100151.06;4887786;28;98068;-77
2022/05/03 03:31:41;;;;;;;30.42;19.42;;;;;;;12.05;59.88;100143.97;4893527;28;97502;-77
2022/05/03 03:34:06;;;;;;;27.08;17.30;;;;;;;11.86;60.35;100146.50;4892365;28;100658;-77
2022/05/03 03:36:33;;;;;;;29.17;18.50;;;;;;;11.87;60.24;100137.69;4861011;28;97324;-80
2022/05/03 03:38:58;;;;;;;33.67;19.27;;;;;;;11.83;60.44;100131.66;4869782;28;97167;-80
2022/05/03 03:41:25;;;;;;;32.33;18.45;;;;;;;11.91;59.97;100140.13;4877603;28;100839;-78
2022/05/03 03:43:52;;;;;;;30.23;18.95;;;;;;;11.86;60.20;100142.09;4860044;28;100988;-78
2022/05/03 03:46:17;;;;;;;26.83;18.50;;;;;;;11.90;59.90;100143.69;4876839;28;97087;-77
2022/05/03 03:48:43;;;;;;;31.55;18.45;;;;;;;11.92;59.80;100144.47;4861193;28;97056;-77
2022/05/03 03:51:10;;;;;;;30.75;20.10;;;;;;;11.69;60.47;100148.06;4877207;28;100883;-77
2022/05/03 03:53:37;;;;;;;28.95;19.67;;;;;;;11.86;60.32;100149.13;4870964;28;101712;-78
2022/05/03 03:56:03;;;;;;;34.78;19.75;;;;;;;11.55;60.30;100124.94;4861411;28;97184;-77
2022/05/03 03:58:29;;;;;;;28.42;19.77;;;;;;;11.73;60.52;100149.63;4893603;28;97100;-77
2022/05/03 04:00:55;;;;;;;28.27;19.63;;;;;;;11.95;60.09;100149.59;4876725;28;97653;-77
2022/05/03 04:03:21;;;;;;;30.58;20.00;;;;;;;11.95;59.95;100159.25;4876882;28;100887;-77
2022/05/03 04:05:47;;;;;;;28.95;20.02;;;;;;;12.02;59.43;100152.00;4876383;28;97148;-78
2022/05/03 04:08:12;;;;;;;30.52;19.83;;;;;;;12.08;59.41;100157.00;4877182;28;97016;-77
2022/05/03 04:10:38;;;;;;;29.02;21.42;;;;;;;12.13;59.34;100161.13;4892117;28;97524;-77
2022/05/03 04:13:04;;;;;;;28.40;20.85;;;;;;;12.22;58.90;100152.00;4883504;28;101330;-77
2022/05/03 04:15:32;;;;;;;29.63;20.60;;;;;;;12.37;58.79;100164.47;4861533;28;97284;-77
2022/05/03 04:17:58;;;;;;;32.10;20.35;;;;;;;12.41;58.27;100152.88;4876663;28;97564;-77
2022/05/03 04:20:24;;;;;;;33.00;20.52;;;;;;;12.56;57.67;100153.97;4861194;28;101349;-77
2022/05/03 04:22:49;;;;;;;33.60;22.77;;;;;;;12.74;57.46;100160.19;4859774;28;100955;-77
2022/05/03 04:25:15;;;;;;;37.05;23.70;;;;;;;12.77;57.37;100159.19;4878049;28;96932;-77
2022/05/03 04:27:41;;;;;;;33.33;20.63;;;;;;;13.02;56.27;100158.91;4876929;28;96835;-78
2022/05/03 04:30:07;;;;;;;28.75;20.77;;;;;;;13.16;56.21;100168.81;4893249;28;97567;-78
2022/05/03 04:32:33;;;;;;;30.00;19.58;;;;;;;12.90;56.61;100144.53;4859692;28;101461;-78
2022/05/03 04:34:59;;;;;;;29.25;19.92;;;;;;;13.17;56.68;100167.88;4875901;28;97141;-78
2022/05/03 04:37:25;;;;;;;27.98;19.98;;;;;;;13.18;56.40;100164.31;4859652;28;97521;-78
2022/05/03 04:39:51;;;;;;;30.80;20.00;;;;;;;13.34;55.95;100158.28;4866952;28;101134;-78
2022/05/03 04:42:16;;;;;;;28.33;19.63;;;;;;;13.62;55.57;100166.66;4875885;28;101168;-77
2022/05/03 04:44:42;;;;;;;29.50;19.20;;;;;;;13.81;55.44;100170.06;4872697;28;97509;-78
2022/05/03 04:47:08;;;;;;;26.30;18.38;;;;;;;14.11;54.58;100162.41;4889653;28;97142;-78
2022/05/03 04:49:34;;;;;;;25.15;18.55;;;;;;;14.52;53.59;100169.16;4876341;28;101831;-79
2022/05/03 04:51:59;;;;;;;26.40;19.58;;;;;;;14.47;53.30;100170.19;4859818;28;101283;-78
2022/05/03 04:54:25;;;;;;;28.60;18.52;;;;;;;14.69;53.21;100169.97;4858643;28;97432;-79
2022/05/03 04:57:01;;;;;;;28.60;17.50;;;;;;;14.83;52.99;100160.41;4891290;28;96848;-79
2022/05/03 04:59:27;;;;;;;27.05;17.65;;;;;;;15.22;52.20;100175.06;4876766;28;97430;-78
2022/05/03 05:01:53;;;;;;;30.48;17.85;;;;;;;15.53;51.55;100168.88;4874364;28;101309;-78
2022/05/03 05:04:18;;;;;;;26.25;17.85;;;;;;;15.82;50.41;100161.94;4871222;28;96809;-77
2022/05/03 05:06:47;;;;;;;24.00;16.65;;;;;;;16.14;49.80;100172.41;4859272;28;97222;-77
2022/05/03 05:09:12;;;;;;;28.65;18.35;;;;;;;16.37;49.55;100163.09;4873289;28;98001;-77
2022/05/03 05:11:38;;;;;;;24.27;17.52;;;;;;;16.64;48.55;100172.03;4875713;28;101513;-78
2022/05/03 05:14:03;;;;;;;22.98;16.08;;;;;;;16.94;48.50;100169.28;4875693;28;96969;-77
2022/05/03 05:16:29;;;;;;;22.95;17.30;;;;;;;16.95;48.18;100176.28;4876880;28;97126;-78
2022/05/03 05:18:54;;;;;;;25.05;16.88;;;;;;;17.13;47.99;100163.69;4859949;28;101820;-77
2022/05/03 05:21:20;;;;;;;23.95;17.80;;;;;;;17.32;47.29;100173.97;4876141;28;99119;-77
2022/05/03 05:23:45;;;;;;;30.27;16.88;;;;;;;17.83;45.92;100174.19;4878973;28;97346;-78
2022/05/03 05:26:11;;;;;;;29.70;16.30;;;;;;;18.40;45.28;100158.88;4875745;28;97655;-78
2022/05/03 05:28:37;;;;;;;26.85;15.38;;;;;;;19.39;43.32;100159.78;4876262;28;101992;-76
2022/05/03 05:31:03;;;;;;;21.10;14.45;;;;;;;20.47;41.51;100179.19;4876052;28;101564;-76
2022/05/03 05:33:28;;;;;;;19.50;14.15;;;;;;;21.10;39.94;100178.75;4893151;28;97372;-76
2022/05/03 05:35:54;;;;;;;21.67;14.77;;;;;;;20.10;41.61;100159.84;4891189;28;97476;-76
2022/05/03 05:38:20;;;;;;;16.48;13.55;;;;;;;22.19;38.60;100169.81;4876153;28;101282;-76
2022/05/03 05:40:46;;;;;;;20.05;13.43;;;;;;;23.43;35.91;100172.34;4859723;28;101278;-76
2022/05/03 05:43:13;;;;;;;18.33;12.73;;;;;;;24.02;35.07;100179.47;4899652;28;97171;-76
2022/05/03 05:45:39;;;;;;;18.75;13.15;;;;;;;23.45;34.76;100165.88;4874817;28;97291;-78
2022/05/03 05:48:05;;;;;;;21.02;14.43;;;;;;;21.48;37.39;100173.00;4891234;28;98684;-78
2022/05/03 05:50:31;;;;;;;17.73;13.18;;;;;;;21.37;38.21;100173.03;4859763;28;101709;-78
2022/05/03 05:55:42;;;;;;;16.75;13.35;;;;;;;25.04;33.03;100174.25;4908390;28;96835;-78
2022/05/03 05:58:09;;;;;;;18.90;13.95;;;;;;;25.09;32.15;100173.81;4860333;28;101705;-78
2022/05/03 06:00:34;;;;;;;18.65;13.60;;;;;;;22.76;35.97;100179.16;4875076;28;101214;-78
2022/05/03 06:03:00;;;;;;;18.98;13.10;;;;;;;24.35;34.04;100154.03;4873697;28;98003;-78
2022/05/03 06:05:26;;;;;;;21.10;14.52;;;;;;;25.75;32.08;100178.94;4859500;28;96912;-78
2022/05/03 06:07:53;;;;;;;16.60;13.13;;;;;;;25.78;31.45;100175.09;4858965;28;101004;-78
2022/05/03 06:10:20;;;;;;;19.20;14.15;;;;;;;26.62;30.48;100171.94;4875596;28;100926;-79
2022/05/03 06:12:47;;;;;;;18.25;13.25;;;;;;;27.86;28.79;100165.13;4879032;28;97168;-78
2022/05/03 06:15:12;;;;;;;16.00;12.48;;;;;;;28.36;28.33;100161.38;4909242;28;97390;-78
2022/05/03 06:17:40;;;;;;;14.35;12.38;;;;;;;28.13;28.26;100161.22;4890372;28;98230;-79
2022/05/03 06:20:07;;;;;;;16.08;11.65;;;;;;;29.20;27.41;100159.97;4875621;28;97503;-78
2022/05/03 06:22:33;;;;;;;15.50;11.82;;;;;;;29.87;26.60;100145.00;4870370;28;97421;-78
2022/05/03 06:24:59;;;;;;;15.15;11.77;;;;;;;29.60;26.97;100152.63;4890940;28;97216;-78
2022/05/03 06:27:24;;;;;;;14.68;11.02;;;;;;;30.06;26.11;100152.63;4874736;28;101860;-78
2022/05/03 06:29:50;;;;;;;14.95;11.50;;;;;;;31.01;25.20;100157.44;4859237;28;101268;-79
2022/05/03 06:32:15;;;;;;;15.52;10.70;;;;;;;30.66;25.12;100158.97;4875434;28;98100;-78
2022/05/03 06:34:41;;;;;;;13.25;10.63;;;;;;;30.65;24.76;100163.56;4891143;28;96842;-79
2022/05/03 06:37:07;;;;;;;12.85;8.60;;;;;;;31.02;24.20;100155.56;4874815;28;97658;-78
2022/05/03 06:39:36;;;;;;;9.50;7.32;;;;;;;29.36;24.99;100155.50;4875182;28;100778;-78
2022/05/03 06:42:06;;;;;;;9.98;6.07;;;;;;;27.77;25.00;100156.97;4874370;28;96861;-78
2022/05/03 06:44:31;;;;;;;8.63;4.43;;;;;;;25.23;28.01;100151.88;4874997;28;97124;-78
2022/05/03 06:46:57;;;;;;;6.95;5.28;;;;;;;29.15;24.23;100161.50;4873588;28;101913;-78
2022/05/03 06:49:23;;;;;;;6.90;4.95;;;;;;;31.03;21.89;100163.47;4859080;28;101895;-78
2022/05/03 06:51:52;;;;;;;4.63;4.15;;;;;;;31.59;20.49;100157.47;4875362;28;97297;-79
2022/05/03 06:54:17;;;;;;;8.25;4.72;;;;;;;31.67;20.33;100165.47;4873754;28;97315;-78
2022/05/03 06:56:43;;;;;;;5.63;4.38;;;;;;;32.05;20.36;100169.84;4874329;28;97644;-79
2022/05/03 06:59:08;;;;;;;7.53;3.85;;;;;;;32.69;19.92;100154.22;4877497;28;97564;-79
2022/05/03 07:01:35;;;;;;;6.85;4.07;;;;;;;33.57;20.33;100148.16;4859878;28;98014;-78
2022/05/03 07:04:01;;;;;;;5.43;3.85;;;;;;;35.01;20.40;100157.47;4887522;28;97536;-79
2022/05/03 07:06:26;;;;;;;6.05;4.00;;;;;;;34.04;18.81;100149.06;4876054;28;101488;-78
2022/05/03 07:08:52;;;;;;;5.95;3.83;;;;;;;32.55;18.94;100159.78;4860651;28;101344;-78
2022/05/03 07:11:18;;;;;;;4.68;3.90;;;;;;;33.03;19.69;100168.84;4860818;28;96833;-78
2022/05/03 07:13:43;;;;;;;6.93;3.70;;;;;;;33.27;19.48;100153.88;4875383;28;96888;-78
2022/05/03 07:16:09;;;;;;;4.22;3.38;;;;;;;34.61;18.75;100168.47;4860146;28;101575;-78
2022/05/03 07:24:03;;;;;;;7.03;3.88;;;;;;;35.91;17.94;100165.59;4895030;28;96935;-79
2022/05/03 07:26:29;;;;;;;4.82;3.38;;;;;;;35.50;16.91;100167.72;4891678;28;97482;-79
2022/05/03 07:28:54;;;;;;;8.00;3.95;;;;;;;35.77;17.81;100162.94;4882852;28;101070;-78
2022/05/03 07:31:20;;;;;;;4.65;3.72;;;;;;;35.29;17.92;100177.09;4876372;28;97187;-79
2022/05/03 07:33:47;;;;;;;4.32;3.80;;;;;;;36.03;17.18;100155.63;4876369;28;97335;-79
2022/05/03 07:36:15;;;;;;;6.10;3.85;;;;;;;36.45;16.94;100170.41;4909288;28;98634;-80
2022/05/03 07:38:41;;;;;;;5.10;3.72;;;;;;;35.99;17.23;100178.97;4877377;28;101305;-86
2022/05/03 07:41:07;;;;;;;8.45;4.30;;;;;;;37.07;16.10;100166.81;4884410;28;96816;-85
2022/05/03 07:43:34;;;;;;;7.95;4.03;;;;;;;36.29;16.59;100176.44;4886395;28;97173;-84
2022/05/03 07:46:00;;;;;;;4.53;3.58;;;;;;;37.66;16.21;100176.13;4877604;28;101497;-85
2022/05/03 07:48:26;;;;;;;4.00;3.40;;;;;;;37.40;16.46;100160.88;4892288;28;97446;-87
2022/05/03 07:50:51;;;;;;;4.68;3.58;;;;;;;36.69;16.39;100176.91;4893622;28;97321;-85
2022/05/03 07:53:17;;;;;;;4.85;3.70;;;;;;;36.14;16.80;100175.94;4873821;28;96991;-84
2022/05/03 07:55:47;;;;;;;6.15;3.47;;;;;;;36.01;16.99;100169.50;4860988;28;101621;-81
2022/05/03 07:58:14;;;;;;;5.70;3.40;;;;;;;36.82;16.63;100175.91;4892363;28;97568;-81
2022/05/03 08:00:39;;;;;;;4.72;3.47;;;;;;;36.41;16.42;100163.69;4876011;28;97551;-83
2022/05/03 08:03:05;;;;;;;5.25;3.25;;;;;;;36.91;16.69;100169.06;4889485;28;97584;-80
2022/05/03 08:05:31;;;;;;;5.75;3.67;;;;;;;37.39;15.91;100168.25;4862479;28;97284;-80
2022/05/03 08:07:56;;;;;;;6.00;4.20;;;;;;;37.27;16.59;100182.97;4887129;28;97789;-79
2022/05/03 08:10:22;;;;;;;6.03;3.70;;;;;;;37.94;16.32;100182.88;4887798;28;97198;-80
2022/05/03 08:12:51;;;;;;;4.53;3.38;;;;;;;38.40;16.08;100176.63;4859499;28;98349;-79
2022/05/03 08:15:20;;;;;;;7.93;3.38;;;;;;;38.12;16.24;100185.53;4889382;28;98012;-85
2022/05/03 08:17:46;;;;;;;4.95;4.00;;;;;;;37.82;15.52;100180.09;4890572;28;101218;-83
2022/05/03 08:20:13;;;;;;;5.63;3.42;;;;;;;35.70;17.20;100188.66;4891520;28;97062;-84
2022/05/03 08:22:39;;;;;;;4.28;3.45;;;;;;;33.56;18.35;100182.66;4873169;28;97410;-89
2022/05/03 08:25:06;;;;;;;5.70;3.38;;;;;;;31.67;20.36;100189.91;4873485;28;101543;-82
2022/05/03 08:27:33;;;;;;;7.00;4.30;;;;;;;33.92;18.50;100188.78;4890289;28;97562;-82
2022/05/03 08:29:59;;;;;;;4.70;3.63;;;;;;;34.47;17.85;100190.28;4890962;28;96851;-81
2022/05/03 08:32:25;;;;;;;4.57;3.53;;;;;;;33.13;18.60;100190.22;4893433;28;97205;-81
2022/05/03 08:34:50;;;;;;;5.22;3.28;;;;;;;31.10;20.10;100199.66;4907407;28;97539;-84
2022/05/03 08:42:44;;;;;;;6.18;3.60;;;;;;;29.38;22.68;100192.16;4888043;28;97495;-82
2022/05/03 08:45:10;;;;;;;7.43;3.22;;;;;;;30.19;22.29;100196.13;4889693;28;98188;-82
2022/05/03 08:47:37;;;;;;;4.25;3.28;;;;;;;30.11;21.52;100179.16;4866490;28;101246;-80
2022/05/03 08:50:08;;;;;;;8.25;3.97;;;;;;;31.02;20.72;100194.31;4873594;28;96704;-83
2022/05/03 08:52:41;;;;;;;7.60;3.50;;;;;;;31.11;21.53;100198.63;4891990;28;97031;-79
2022/05/03 08:55:07;;;;;;;5.68;3.58;;;;;;;32.98;20.15;100193.06;4892678;28;97490;-78
2022/05/03 08:57:33;;;;;;;5.90;3.67;;;;;;;32.71;20.46;100188.53;4909166;28;98183;-78
2022/05/03 09:00:00;;;;;;;5.38;3.22;;;;;;;33.75;19.40;100175.59;4869001;28;97025;-78
2022/05/03 09:02:26;;;;;;;4.60;3.40;;;;;;;34.20;18.84;100192.19;4885912;28;96921;-79
2022/05/03 09:04:51;;;;;;;6.75;3.95;;;;;;;33.37;18.76;100191.59;4889336;28;97485;-79
2022/05/03 09:07:23;;;;;;;6.80;2.90;;;;;;;32.42;20.07;100184.97;4882380;28;97769;-80
2022/05/03 09:09:49;;;;;;;7.55;3.13;;;;;;;31.58;20.96;100170.19;4877028;28;97648;-81
2022/05/03 09:12:29;;;;;;;5.00;3.83;;;;;;;31.73;21.20;100182.88;4882278;28;98105;-79
2022/05/03 09:15:00;;;;;;;5.20;3.22;;;;;;;31.16;21.06;100176.38;4904749;28;97658;-80
2022/05/03 09:17:35;;;;;;;5.88;3.65;;;;;;;30.87;21.92;100185.38;4873733;28;100898;-80
2022/05/03 09:23:46;;;;;;;6.60;3.75;;;;;;;31.11;21.72;100176.09;4906629;28;97424;-80
2022/05/03 09:25:34;;;;;;;7.15;3.50;;;;;;;31.58;19.98;100182.91;4875109;28;99054;-80
2022/05/03 09:28:06;;;;;;;4.25;3.15;;;;;;;31.43;20.59;100163.16;4885405;28;98106;-80
2022/05/03 09:30:32;;;;;;;5.60;3.88;;;;;;;32.35;19.70;100175.91;4879140;28;97766;-79
2022/05/03 09:32:57;;;;;;;5.32;3.22;;;;;;;31.90;20.36;100172.59;4885665;28;97034;-80
2022/05/03 09:35:35;;;;;;;4.07;3.17;;;;;;;31.75;20.59;100176.22;4889309;28;98038;-79
2022/05/03 09:38:03;;;;;;;5.07;3.67;;;;;;;32.02;20.89;100173.78;4874657;28;101027;-80
2022/05/03 09:40:36;;;;;;;7.10;4.05;;;;;;;31.97;20.20;100168.94;4891457;28;97478;-78
2022/05/03 09:43:05;;;;;;;8.38;4.20;;;;;;;31.85;20.00;100175.88;4872546;28;97096;-78
2022/05/03 09:45:31;;;;;;;11.70;3.67;;;;;;;31.01;21.30;100173.69;4890636;28;97540;-78
2022/05/03 09:47:59;;;;;;;5.35;3.75;;;;;;;31.66;21.82;100171.94;4875073;28;101151;-77
2022/05/03 09:50:33;;;;;;;5.80;3.58;;;;;;;32.11;22.30;100175.31;4870602;28;98521;-75
2022/05/03 09:53:12;;;;;;;8.98;4.00;;;;;;;32.86;20.75;100170.22;4905579;28;97327;-77
2022/05/03 09:55:39;;;;;;;7.17;3.70;;;;;;;32.29;20.58;100163.13;4905558;28;97463;-80
2022/05/03 09:58:07;;;;;;;6.97;4.00;;;;;;;31.07;21.21;100159.38;4885242;28;97421;-75
2022/05/03 10:00:34;;;;;;;5.32;3.20;;;;;;;31.63;22.27;100168.78;4873628;28;98940;-79
2022/05/03 10:03:01;;;;;;;6.80;3.95;;;;;;;31.80;22.38;100154.78;4872174;28;97165;-75
2022/05/03 10:05:27;;;;;;;6.40;3.60;;;;;;;32.00;21.57;100156.88;4907242;28;97883;-76
2022/05/03 10:07:54;;;;;;;3.65;3.03;;;;;;;32.19;21.95;100161.59;4883465;28;98746;-76
2022/05/03 10:10:20;;;;;;;4.65;3.15;;;;;;;31.97;21.12;100144.53;4874290;28;97445;-77
2022/05/03 10:12:47;;;;;;;5.75;3.90;;;;;;;31.73;20.89;100156.56;4874282;28;97633;-75
2022/05/03 10:20:35;;;;;;;6.60;5.20;;;;;;;31.41;20.43;100160.63;4890613;28;98416;-77
2022/05/03 10:20:46;;;;;;;5.30;4.07;;;;;;;28.85;23.65;100145.91;4874680;28;97126;-76
2022/05/03 10:23:32;;;;;;;7.18;3.97;;;;;;;27.60;25.32;100149.88;4889666;28;96902;-75
2022/05/03 10:26:00;;;;;;;4.63;3.28;;;;;;;28.25;25.36;100150.97;4887328;28;97563;-75
2022/05/03 10:28:59;;;;;;;5.97;5.00;;;;;;;28.50;24.54;100143.66;4888455;28;97402;-76
2022/05/03 10:31:24;;;;;;;4.78;3.63;;;;;;;28.33;25.75;100145.53;4907931;28;96655;-76
2022/05/03 10:33:50;;;;;;;5.10;3.40;;;;;;;27.96;25.68;100125.34;4876577;28;97420;-81
2022/05/03 10:36:31;;;;;;;7.13;5.20;;;;;;;28.34;24.10;100139.13;4909954;28;97351;-76
2022/05/03 10:39:05;;;;;;;7.95;3.97;;;;;;;27.91;25.85;100133.94;4903410;28;101277;-76
2022/05/03 10:41:31;;;;;;;8.88;4.03;;;;;;;27.71;26.02;100121.78;4883334;28;96804;-76
2022/05/03 10:43:56;;;;;;;8.10;4.50;;;;;;;27.30;25.38;100119.03;4889278;28;96738;-75
2022/05/03 10:46:23;;;;;;;7.78;3.95;;;;;;;27.27;27.10;100138.22;4887762;28;97529;-76
2022/05/03 10:49:14;;;;;;;5.97;3.38;;;;;;;27.06;27.06;100138.63;4857446;28;98069;-75
2022/05/03 10:51:41;;;;;;;5.95;3.28;;;;;;;26.63;27.32;100121.63;4874230;28;96673;-81
2022/05/03 10:54:07;;;;;;;5.93;3.55;;;;;;;26.67;27.32;100135.59;4872507;28;97107;-75
2022/05/03 10:56:33;;;;;;;9.52;3.53;;;;;;;26.34;27.60;100122.78;4872805;28;97573;-74
2022/05/03 10:59:10;;;;;;;5.60;3.70;;;;;;;26.74;27.29;100129.41;4856108;28;100012;-74
2022/05/03 11:01:57;;;;;;;5.05;3.45;;;;;;;26.78;26.77;100125.38;4872509;28;97132;-74
2022/05/03 11:04:24;;;;;;;4.88;3.05;;;;;;;26.84;27.41;100113.13;4866159;28;97344;-80
2022/05/03 11:06:50;;;;;;;5.10;3.38;;;;;;;27.10;28.55;100127.34;4856744;28;97423;-78
2022/05/03 11:09:33;;;;;;;4.38;3.25;;;;;;;27.12;27.56;100121.81;4857169;28;98112;-78
2022/05/03 11:12:01;;;;;;;3.20;2.90;;;;;;;26.88;27.28;100122.59;4860670;28;96777;-78
2022/05/03 11:14:27;;;;;;;6.35;2.70;;;;;;;26.69;27.55;100120.13;4856396;28;97873;-78
2022/05/03 11:17:02;;;;;;;3.72;3.05;;;;;;;26.46;27.60;100131.41;4872995;28;97478;-78
2022/05/03 11:19:29;;;;;;;6.97;3.00;;;;;;;26.11;27.25;100125.16;4873526;28;97382;-77
2022/05/03 11:21:56;;;;;;;5.53;2.80;;;;;;;26.00;27.70;100105.72;4871415;28;97701;-78
2022/05/03 11:24:24;;;;;;;7.32;3.08;;;;;;;26.08;28.26;100095.88;4872004;28;96791;-78
2022/05/03 11:26:52;;;;;;;6.70;3.83;;;;;;;26.00;27.41;100100.34;4855795;28;98062;-79
2022/05/03 11:29:18;;;;;;;4.82;3.63;;;;;;;25.37;27.68;100095.94;4872386;28;97499;-78
2022/05/03 11:31:51;;;;;;;4.30;3.10;;;;;;;25.62;27.85;100113.97;4873756;28;96717;-78
2022/05/03 11:34:18;;;;;;;7.68;3.50;;;;;;;25.95;28.66;100106.22;4854886;28;96739;-78
2022/05/03 11:36:50;;;;;;;6.88;3.45;;;;;;;26.13;28.09;100112.38;4855572;28;97312;-78
2022/05/03 11:39:16;;;;;;;4.50;3.05;;;;;;;26.37;29.33;100109.00;4872105;28;97578;-78
2022/05/03 11:41:42;;;;;;;9.65;3.00;;;;;;;26.17;28.94;100083.31;4856190;28;96748;-77
2022/05/03 11:44:08;;;;;;;5.22;2.67;;;;;;;26.24;29.37;100095.16;4870977;28;97032;-76
2022/05/03 11:46:34;;;;;;;5.78;3.10;;;;;;;25.89;28.82;100094.25;4874455;28;101173;-77
2022/05/03 11:49:05;;;;;;;5.38;2.97;;;;;;;25.74;28.73;100110.06;4892968;28;97300;-77
2022/05/03 11:57:13;;;;;;;5.28;3.08;;;;;;;25.87;29.43;100101.63;4874888;28;100942;-78